createdAt,value
2019-02-03T00:01:28.415Z,3.80
2019-02-03T00:04:07.727Z,3.70
2019-02-03T00:06:47.760Z,3.70
2019-02-03T00:09:27.672Z,3.70
2019-02-03T00:12:07.059Z,3.70
2019-02-03T00:14:47.026Z,3.70
2019-02-03T00:17:26.237Z,3.70
2019-02-03T00:20:06.243Z,3.70
2019-02-03T00:22:45.483Z,3.60
2019-02-03T00:25:25.453Z,3.60
2019-02-03T00:28:05.405Z,3.60
2019-02-03T00:30:45.467Z,3.50
2019-02-03T00:33:24.719Z,3.50
2019-02-03T00:36:04.739Z,3.60
2019-02-03T00:38:45.142Z,3.60
2019-02-03T00:41:25.056Z,3.60
2019-02-03T00:44:05.008Z,3.70
2019-02-03T00:46:45.276Z,3.70
2019-02-03T00:49:25.323Z,3.60
2019-02-03T00:52:04.433Z,3.60
2019-02-03T00:54:44.541Z,3.60
2019-02-03T00:57:23.927Z,3.70
2019-02-03T01:00:03.244Z,3.70
2019-02-03T01:02:43.116Z,3.70
2019-02-03T01:05:23.118Z,3.70
2019-02-03T01:08:03.193Z,3.60
2019-02-03T01:10:43.467Z,3.70
2019-02-03T01:13:22.592Z,3.70
2019-02-03T01:16:02.623Z,3.80
2019-02-03T01:18:42.677Z,3.70
2019-02-03T01:21:22.012Z,3.80
2019-02-03T01:24:02.238Z,3.70
2019-02-03T01:26:42.152Z,3.70
2019-02-03T01:29:21.329Z,3.70
2019-02-03T01:32:00.422Z,3.60
2019-02-03T01:34:40.450Z,3.70
2019-02-03T01:37:24.056Z,3.70
2019-02-03T01:40:03.327Z,3.80
2019-02-03T01:42:43.154Z,3.80
2019-02-03T01:45:23.220Z,3.70
2019-02-03T01:48:02.273Z,3.80
2019-02-03T01:50:41.338Z,3.80
2019-02-03T01:53:20.496Z,3.80
2019-02-03T01:56:00.607Z,3.90
2019-02-03T01:58:40.634Z,3.80
2019-02-03T02:01:20.744Z,3.80
2019-02-03T02:03:59.889Z,3.70
2019-02-03T02:06:39.017Z,3.80
2019-02-03T02:09:18.863Z,3.80
2019-02-03T02:11:58.937Z,3.90
2019-02-03T02:14:38.197Z,3.80
2019-02-03T02:17:18.215Z,3.80
2019-02-03T02:19:57.264Z,3.80
2019-02-03T02:22:37.531Z,3.80
2019-02-03T02:25:17.408Z,3.90
2019-02-03T02:27:57.365Z,3.90
2019-02-03T02:30:37.359Z,3.80
2019-02-03T02:33:17.448Z,3.80
2019-02-03T02:35:56.543Z,3.80
2019-02-03T02:38:36.666Z,3.90
2019-02-03T02:41:15.931Z,3.80
2019-02-03T02:43:55.864Z,3.70
2019-02-03T02:46:35.970Z,3.70
2019-02-03T02:49:15.080Z,3.70
2019-02-03T02:51:55.072Z,3.60
2019-02-03T02:54:35.129Z,3.40
2019-02-03T02:57:14.188Z,3.40
2019-02-03T02:59:54.398Z,3.30
2019-02-03T03:02:34.299Z,3.20
2019-02-03T03:05:14.297Z,3.30
2019-02-03T03:07:53.417Z,3.40
2019-02-03T03:10:37.352Z,3.40
2019-02-03T03:13:16.727Z,3.40
2019-02-03T03:15:56.703Z,3.50
2019-02-03T03:18:36.547Z,3.70
2019-02-03T03:21:15.700Z,3.60
2019-02-03T03:23:55.187Z,3.50
2019-02-03T03:26:35.032Z,3.50
2019-02-03T03:29:14.214Z,3.40
2019-02-03T03:31:54.443Z,3.30
2019-02-03T03:34:34.069Z,3.30
2019-02-03T03:37:13.224Z,3.30
2019-02-03T03:39:52.312Z,3.40
2019-02-03T03:42:32.552Z,3.40
2019-02-03T03:45:11.764Z,3.40
2019-02-03T03:47:51.839Z,3.50
2019-02-03T03:50:31.821Z,3.40
2019-02-03T03:53:11.161Z,3.50
2019-02-03T03:55:50.331Z,3.50
2019-02-03T03:58:30.285Z,3.60
2019-02-03T04:01:10.314Z,3.60
2019-02-03T04:03:50.338Z,3.60
2019-02-03T04:06:30.504Z,3.60
2019-02-03T04:09:09.612Z,3.50
2019-02-03T04:11:49.750Z,3.50
2019-02-03T04:14:29.782Z,3.40
2019-02-03T04:17:09.812Z,3.40
2019-02-03T04:19:49.932Z,3.50
2019-02-03T04:22:30.010Z,3.50
2019-02-03T04:25:09.248Z,3.50
2019-02-03T04:27:48.402Z,3.50
2019-02-03T04:30:28.384Z,3.50
2019-02-03T04:33:07.595Z,3.40
2019-02-03T04:35:46.709Z,3.50
2019-02-03T04:38:26.745Z,3.20
2019-02-03T04:41:07.540Z,3.20
2019-02-03T04:43:46.615Z,3.40
2019-02-03T04:46:26.709Z,3.30
2019-02-03T04:49:06.371Z,3.40
2019-02-03T04:51:46.109Z,3.50
2019-02-03T04:54:26.163Z,3.30
2019-02-03T04:57:05.418Z,3.10
2019-02-03T04:59:45.423Z,3.10
2019-02-03T05:02:25.568Z,3.20
2019-02-03T05:05:05.560Z,3.20
2019-02-03T05:07:44.628Z,3.20
2019-02-03T05:10:24.638Z,3.30
2019-02-03T05:13:03.743Z,3.20
2019-02-03T05:15:42.883Z,3.10
2019-02-03T05:18:23.065Z,3.20
2019-02-03T05:21:03.061Z,3.10
2019-02-03T05:23:42.892Z,3.20
2019-02-03T05:26:23.203Z,3.20
2019-02-03T05:29:03.197Z,3.20
2019-02-03T05:31:43.132Z,3.10
2019-02-03T05:34:23.208Z,3.10
2019-02-03T05:37:03.272Z,3.10
2019-02-03T05:39:42.543Z,3.00
2019-02-03T05:42:22.468Z,2.90
2019-02-03T05:45:01.659Z,3.10
2019-02-03T05:47:41.629Z,3.00
2019-02-03T05:50:21.864Z,3.10
2019-02-03T05:53:01.666Z,3.00
2019-02-03T05:55:41.679Z,3.00
2019-02-03T05:58:21.678Z,2.90
2019-02-03T06:01:01.586Z,2.90
2019-02-03T06:03:41.519Z,3.00
2019-02-03T06:06:21.606Z,3.00
2019-02-03T06:09:00.910Z,3.00
2019-02-03T06:11:40.864Z,3.10
2019-02-03T06:14:20.850Z,3.00
2019-02-03T06:17:00.823Z,3.00
2019-02-03T06:19:41.000Z,3.00
2019-02-03T06:22:20.958Z,3.00
2019-02-03T06:25:00.043Z,3.00
2019-02-03T06:27:39.277Z,3.10
2019-02-03T06:30:19.503Z,3.00
2019-02-03T06:32:59.556Z,3.10
2019-02-03T06:35:41.643Z,3.00
2019-02-03T06:38:21.548Z,3.00
2019-02-03T06:41:00.686Z,3.00
2019-02-03T06:43:40.684Z,3.10
2019-02-03T06:46:22.715Z,3.20
2019-02-03T06:49:02.687Z,3.20
2019-02-03T06:51:42.320Z,3.20
2019-02-03T06:54:21.488Z,3.20
2019-02-03T06:57:00.794Z,3.10
2019-02-03T07:02:42.864Z,3.10
2019-02-03T07:05:22.248Z,3.00
2019-02-03T07:08:01.490Z,3.00
2019-02-03T07:10:41.356Z,2.90
2019-02-03T07:13:20.473Z,2.80
2019-02-03T07:19:39.898Z,2.80
2019-02-03T07:22:19.999Z,2.90
2019-02-03T07:25:00.102Z,3.00
2019-02-03T07:27:40.070Z,3.10
2019-02-03T07:30:19.272Z,3.10
2019-02-03T07:32:58.452Z,3.20
2019-02-03T07:35:37.611Z,3.30
2019-02-03T07:38:17.762Z,3.20
2019-02-03T07:40:56.960Z,3.30
2019-02-03T07:43:36.167Z,3.30
2019-02-03T07:46:16.223Z,3.50
2019-02-03T07:48:55.372Z,3.50
2019-02-03T07:51:35.008Z,3.50
2019-02-03T07:54:14.882Z,3.50
2019-02-03T07:56:55.034Z,3.50
2019-02-03T07:59:34.229Z,3.50
2019-02-03T08:02:13.329Z,3.40
2019-02-03T08:04:53.501Z,3.50
2019-02-03T08:07:33.506Z,3.30
2019-02-03T08:10:23.826Z,3.40
2019-02-03T08:12:53.866Z,3.50
2019-02-03T08:15:33.840Z,3.60
2019-02-03T08:18:13.776Z,3.60
2019-02-03T08:20:53.011Z,3.60
2019-02-03T08:23:32.227Z,3.60
2019-02-03T08:26:12.197Z,3.60
2019-02-03T08:28:51.363Z,3.70
2019-02-03T08:31:31.258Z,3.70
2019-02-03T08:34:11.314Z,3.90
2019-02-03T08:36:51.495Z,3.80
2019-02-03T08:39:31.389Z,3.80
2019-02-03T08:42:11.638Z,3.70
2019-02-03T08:44:50.871Z,3.70
2019-02-03T08:47:30.809Z,3.70
2019-02-03T08:50:11.015Z,3.90
2019-02-03T08:52:51.543Z,3.90
2019-02-03T08:55:31.110Z,3.90
2019-02-03T08:58:11.004Z,3.90
2019-02-03T09:00:51.147Z,4.00
2019-02-03T09:03:31.031Z,4.40
2019-02-03T09:06:10.985Z,4.90
2019-02-03T09:08:51.119Z,5.50
2019-02-03T09:11:34.566Z,5.80
2019-02-03T09:14:14.341Z,6.00
2019-02-03T09:16:54.336Z,6.20
2019-02-03T09:19:34.381Z,6.10
2019-02-03T09:22:13.745Z,6.30
2019-02-03T09:24:53.621Z,6.30
2019-02-03T09:27:33.420Z,6.50
2019-02-03T09:30:13.622Z,6.60
2019-02-03T09:32:54.650Z,6.40
2019-02-03T09:35:33.927Z,6.10
2019-02-03T09:38:13.886Z,5.80
2019-02-03T09:40:59.825Z,5.60
2019-02-03T09:43:34.415Z,5.70
2019-02-03T09:46:14.458Z,5.90
2019-02-03T09:48:54.502Z,7.00
2019-02-03T09:51:34.678Z,8.50
2019-02-03T09:54:13.800Z,10.50
2019-02-03T09:56:53.130Z,12.70
2019-02-03T09:59:33.226Z,14.70
2019-02-03T10:02:12.376Z,15.00
2019-02-03T10:04:51.685Z,14.70
2019-02-03T10:07:30.914Z,13.90
2019-02-03T10:10:10.790Z,12.80
2019-02-03T10:13:10.622Z,12.40
2019-02-03T10:15:50.054Z,12.40
2019-02-03T10:18:30.038Z,12.70
2019-02-03T10:21:09.987Z,13.90
2019-02-03T10:23:53.590Z,14.50
2019-02-03T10:29:16.172Z,16.70
2019-02-03T10:31:55.248Z,17.70
2019-02-03T10:34:35.367Z,17.60
2019-02-03T10:37:15.388Z,15.80
2019-02-03T10:43:19.818Z,13.60
2019-02-03T10:45:59.847Z,11.80
2019-02-03T10:48:39.093Z,11.40
2019-02-03T10:54:45.836Z,12.00
2019-02-03T11:00:32.968Z,14.90
2019-02-03T11:06:57.498Z,16.90
2019-02-03T11:09:57.384Z,17.40
2019-02-03T11:19:22.241Z,19.90
2019-02-03T11:22:02.212Z,19.40
2019-02-03T11:31:51.072Z,16.80
2019-02-03T11:38:11.366Z,13.50
2019-02-03T11:40:50.722Z,12.90
2019-02-03T11:43:30.846Z,12.60
2019-02-03T11:46:11.154Z,12.20
2019-02-03T11:48:50.984Z,11.50
2019-02-03T11:51:30.233Z,10.80
2019-02-03T11:54:09.549Z,10.30
2019-02-03T11:56:49.355Z,9.90
2019-02-03T11:59:29.161Z,9.50
2019-02-03T12:02:09.085Z,9.20
2019-02-03T12:04:48.229Z,8.80
2019-02-03T12:07:27.335Z,8.40
2019-02-03T12:10:07.628Z,8.00
2019-02-03T12:12:47.685Z,7.80
2019-02-03T12:25:38.514Z,7.50
2019-02-03T12:28:18.561Z,7.50
2019-02-03T12:30:58.514Z,7.60
2019-02-03T12:33:38.639Z,7.50
2019-02-03T12:36:18.767Z,7.40
2019-02-03T12:41:40.049Z,7.20
2019-02-03T12:44:20.051Z,7.20
2019-02-03T12:47:03.958Z,7.30
2019-02-03T12:49:44.074Z,7.20
2019-02-03T12:52:24.022Z,7.30
2019-02-03T12:55:03.298Z,7.10
2019-02-03T12:57:46.384Z,7.20
2019-02-03T13:00:25.242Z,7.30
2019-02-03T13:05:48.284Z,7.30
2019-02-03T13:08:27.491Z,7.30
2019-02-03T13:11:11.481Z,7.50
2019-02-03T13:14:10.488Z,7.40
2019-02-03T13:16:50.662Z,7.60
2019-02-03T13:19:30.874Z,7.70
2019-02-03T13:22:10.566Z,7.60
2019-02-03T13:25:10.418Z,7.50
2019-02-03T13:28:09.804Z,7.30
2019-02-03T13:30:53.029Z,7.20
2019-02-03T13:33:32.388Z,7.30
2019-02-03T13:39:37.522Z,7.40
2019-02-03T13:42:16.623Z,7.30
2019-02-03T13:44:56.735Z,7.20
2019-02-03T13:51:16.206Z,6.90
2019-02-03T13:54:16.097Z,7.00
2019-02-03T13:56:55.624Z,7.00
2019-02-03T13:59:35.630Z,6.90
2019-02-03T14:02:14.808Z,7.00
2019-02-03T14:05:14.662Z,7.00
2019-02-03T14:11:19.248Z,7.10
2019-02-03T14:13:59.238Z,7.10
2019-02-03T14:16:38.405Z,7.00
2019-02-03T14:19:17.510Z,7.10
2019-02-03T14:25:36.016Z,7.20
2019-02-03T14:28:15.182Z,7.10
2019-02-03T14:30:55.410Z,6.90
2019-02-03T14:33:35.535Z,7.00
2019-02-03T14:36:34.815Z,7.00
2019-02-03T14:39:14.436Z,7.00
2019-02-03T14:45:29.503Z,6.80
2019-02-03T14:48:09.575Z,6.90
2019-02-03T14:50:49.545Z,6.90
2019-02-03T14:53:29.440Z,7.00
2019-02-03T14:56:09.413Z,6.70
2019-02-03T14:58:49.429Z,6.70
2019-02-03T15:01:29.406Z,6.70
2019-02-03T15:16:58.426Z,6.50
2019-02-03T15:19:38.234Z,6.50
2019-02-03T15:32:26.836Z,6.70
2019-02-03T15:35:06.944Z,6.60
2019-02-03T15:37:47.011Z,6.60
2019-02-03T15:50:38.720Z,6.50
2019-02-03T15:53:38.496Z,6.40
2019-02-03T16:02:08.221Z,6.10
2019-02-03T16:08:06.275Z,5.80
2019-02-03T16:10:46.108Z,5.70
2019-02-03T16:13:45.815Z,5.70
2019-02-03T16:19:34.604Z,5.60
2019-02-03T16:22:34.561Z,5.40
2019-02-03T16:27:55.930Z,5.20
2019-02-03T16:30:36.116Z,5.20
2019-02-03T16:33:15.897Z,5.20
2019-02-03T16:39:17.341Z,5.30
2019-02-03T16:41:56.585Z,5.20
2019-02-03T16:44:40.552Z,5.30
2019-02-03T16:50:37.876Z,5.10
2019-02-03T16:53:17.688Z,5.20
2019-02-03T16:55:56.861Z,5.20
2019-02-03T16:58:35.964Z,5.20
2019-02-03T17:01:15.069Z,5.10
2019-02-03T17:03:55.145Z,5.10
2019-02-03T17:06:35.216Z,5.10
2019-02-03T17:09:14.997Z,5.00
2019-02-03T17:11:54.993Z,5.00
2019-02-03T17:14:34.980Z,5.00
2019-02-03T17:17:14.114Z,5.00
2019-02-03T17:19:54.266Z,5.10
2019-02-03T17:22:34.266Z,5.00
2019-02-03T17:25:17.041Z,5.00
2019-02-03T17:27:55.229Z,4.90
2019-02-03T17:30:34.424Z,4.90
2019-02-03T17:33:13.608Z,4.80
2019-02-03T17:35:54.738Z,4.60
2019-02-03T17:38:33.892Z,4.70
2019-02-03T17:41:14.031Z,4.70
2019-02-03T17:43:54.269Z,4.60
2019-02-03T17:46:34.283Z,4.70
2019-02-03T17:49:16.502Z,4.50
2019-02-03T17:51:54.832Z,4.50
2019-02-03T17:54:34.786Z,4.60
2019-02-03T17:57:14.813Z,4.60
2019-02-03T17:59:54.830Z,4.80
2019-02-03T18:02:34.954Z,4.90
2019-02-03T18:05:14.241Z,4.90
2019-02-03T18:07:54.247Z,5.00
2019-02-03T18:10:33.456Z,5.10
2019-02-03T18:13:12.920Z,5.20
2019-02-03T18:15:53.067Z,5.30
2019-02-03T18:18:33.179Z,5.30
2019-02-03T18:21:13.505Z,5.30
2019-02-03T18:23:53.306Z,5.30
2019-02-03T18:26:33.329Z,5.30
2019-02-03T18:32:17.718Z,5.50
2019-02-03T18:34:57.973Z,5.50
2019-02-03T18:37:37.981Z,5.60
2019-02-03T18:40:17.907Z,5.60
2019-02-03T18:42:57.846Z,5.50
2019-02-03T18:45:37.924Z,5.60
2019-02-03T18:48:17.115Z,5.50
2019-02-03T18:50:57.089Z,5.70
2019-02-03T18:56:20.234Z,5.60
2019-02-03T18:59:00.082Z,5.60
2019-02-03T19:01:39.998Z,5.60
2019-02-03T19:04:19.989Z,5.50
2019-02-03T19:06:59.211Z,5.50
2019-02-03T19:09:39.162Z,5.40
2019-02-03T19:12:19.109Z,5.50
2019-02-03T19:14:59.083Z,5.40
2019-02-03T19:17:38.318Z,5.40
2019-02-03T19:20:17.535Z,5.30
2019-02-03T19:22:56.787Z,5.40
2019-02-03T19:25:36.118Z,5.40
2019-02-03T19:28:15.954Z,5.20
2019-02-03T19:30:56.105Z,5.10
2019-02-03T19:33:36.295Z,5.00
2019-02-03T19:36:16.456Z,4.90
2019-02-03T19:38:56.575Z,4.80
2019-02-03T19:41:36.580Z,4.70
2019-02-03T19:44:16.282Z,4.80
2019-02-03T19:46:55.711Z,4.80
2019-02-03T19:49:46.010Z,4.70
2019-02-03T19:52:16.828Z,4.70
2019-02-03T19:54:56.973Z,4.80
2019-02-03T19:57:36.980Z,4.70
2019-02-03T20:00:16.967Z,4.70
2019-02-03T20:02:56.871Z,4.60
2019-02-03T20:05:36.851Z,4.70
2019-02-03T20:08:16.807Z,4.70
2019-02-03T20:11:15.772Z,4.50
2019-02-03T20:13:55.098Z,4.50
2019-02-03T20:16:35.105Z,4.50
2019-02-03T20:19:14.989Z,4.50
2019-02-03T20:21:55.078Z,4.60
2019-02-03T20:24:34.274Z,4.50
2019-02-03T20:27:14.363Z,4.50
2019-02-03T20:29:54.444Z,4.30
2019-02-03T20:35:43.176Z,4.30
2019-02-03T20:38:23.276Z,4.30
2019-02-03T20:41:03.331Z,4.40
2019-02-03T20:43:43.254Z,4.40
2019-02-03T20:46:23.320Z,4.40
2019-02-03T20:49:03.211Z,4.40
2019-02-03T20:51:43.230Z,4.40
2019-02-03T20:54:22.413Z,4.30
2019-02-03T20:57:01.715Z,4.30
2019-02-03T20:59:41.767Z,4.20
2019-02-03T21:02:21.883Z,4.10
2019-02-03T21:05:01.915Z,4.10
2019-02-03T21:07:41.892Z,4.00
2019-02-03T21:10:22.085Z,4.10
2019-02-03T21:13:10.851Z,4.00
2019-02-03T21:15:44.270Z,4.00
2019-02-03T21:18:24.113Z,4.00
2019-02-03T21:21:04.127Z,4.00
2019-02-03T21:23:44.330Z,3.90
2019-02-03T21:26:24.369Z,4.00
2019-02-03T21:29:04.322Z,3.90
2019-02-03T21:31:44.363Z,3.90
2019-02-03T21:34:24.402Z,3.90
2019-02-03T21:37:08.219Z,3.90
2019-02-03T21:39:48.384Z,4.00
2019-02-03T21:45:43.926Z,3.90
2019-02-03T21:48:14.727Z,3.90
2019-02-03T21:50:55.353Z,3.90
2019-02-03T21:57:14.635Z,3.80
2019-02-03T21:59:54.640Z,3.70
2019-02-03T22:02:34.710Z,3.80
2019-02-03T22:05:14.869Z,3.90
2019-02-03T22:07:53.949Z,3.80
2019-02-03T22:10:33.151Z,3.80
2019-02-03T22:13:13.564Z,3.80
2019-02-03T22:15:55.914Z,3.80
2019-02-03T22:18:35.539Z,3.90
2019-02-03T22:21:15.488Z,3.80
2019-02-03T22:23:55.569Z,3.80
2019-02-03T22:26:35.739Z,3.70
2019-02-03T22:29:15.773Z,3.60
2019-02-03T22:31:55.259Z,3.60
2019-02-03T22:37:43.654Z,3.60
2019-02-03T22:40:23.565Z,3.60
2019-02-03T22:43:03.657Z,3.70
2019-02-03T22:45:43.612Z,3.60
2019-02-03T22:48:22.762Z,3.50
2019-02-03T22:51:02.922Z,3.50
2019-02-03T22:53:42.201Z,3.60
2019-02-03T22:56:22.306Z,3.60
2019-02-03T22:59:01.444Z,3.50
2019-02-03T23:01:41.415Z,3.60
2019-02-03T23:04:20.663Z,3.60
2019-02-03T23:07:00.802Z,3.60
2019-02-03T23:09:40.916Z,3.70
2019-02-03T23:12:20.860Z,3.70
2019-02-03T23:15:00.040Z,3.70
2019-02-03T23:17:40.021Z,3.80
2019-02-03T23:20:19.040Z,3.80
2019-02-03T23:22:58.262Z,3.70
2019-02-03T23:25:37.568Z,3.80
2019-02-03T23:28:21.017Z,3.90
2019-02-03T23:31:00.405Z,3.80
2019-02-03T23:33:40.348Z,3.80
2019-02-03T23:36:20.363Z,3.70
2019-02-03T23:38:59.618Z,3.60
2019-02-03T23:41:39.579Z,3.60
2019-02-03T23:47:27.219Z,3.50
2019-02-03T23:50:07.304Z,3.50
2019-02-03T23:53:07.136Z,3.40
2019-02-03T23:55:46.697Z,3.40
2019-02-03T23:58:25.840Z,3.20
